Time;durP1;ratioP1;P1;durP2;ratioP2;P2;SDS_P1;SDS_P2;PMS_P1;PMS_P2;Temp;Humidity;BMP_temperature;BMP_pressure;BME280_temperature;BME280_humidity;BME280_pressure;Samples;Min_cycle;Max_cycle;Signal;HPM_P1;HPM_P2
2023/12/15 00:01:05;;;;;;;6.40;3.80;;;;;;;;;;5106487;28;20024;-62
2023/12/15 00:03:31;;;;;;;6.40;3.80;;;;;;;;;;5108853;28;20026;-61
2023/12/15 00:06:00;;;;;;;7.90;4.90;;;;;;;;;;5088398;28;20405;-63
2023/12/15 00:08:26;;;;;;;8.25;4.60;;;;;;;;;;5096386;28;20065;-60
2023/12/15 00:10:52;;;;;;;8.60;5.80;;;;;;;;;;5088576;28;20023;-63
2023/12/15 00:13:18;;;;;;;6.90;4.07;;;;;;;;;;5089173;28;20024;-62
2023/12/15 00:15:44;;;;;;;6.50;3.80;;;;;;;;;;5089027;28;20058;-61
2023/12/15 00:18:10;;;;;;;6.32;3.80;;;;;;;;;;5090401;28;20725;-61
2023/12/15 00:20:36;;;;;;;6.65;3.92;;;;;;;;;;5090096;28;20028;-58
2023/12/15 00:23:02;;;;;;;6.30;3.78;;;;;;;;;;5090672;28;20111;-63
2023/12/15 00:25:28;;;;;;;8.35;5.07;;;;;;;;;;5091300;28;20030;-60
2023/12/15 00:27:54;;;;;;;7.57;4.22;;;;;;;;;;5091381;28;20035;-62
2023/12/15 00:30:20;;;;;;;6.32;3.75;;;;;;;;;;5090567;28;20107;-59
2023/12/15 00:32:46;;;;;;;9.30;4.43;;;;;;;;;;4744042;28;10000435;-59
2023/12/15 00:35:12;;;;;;;6.60;3.90;;;;;;;;;;5109485;28;20016;-62
2023/12/15 00:37:38;;;;;;;7.53;4.18;;;;;;;;;;5111343;28;20030;-61
2023/12/15 00:40:04;;;;;;;9.02;5.50;;;;;;;;;;5110227;28;20043;-62
2023/12/15 00:42:30;;;;;;;8.27;4.43;;;;;;;;;;5110617;28;20019;-61
2023/12/15 00:44:56;;;;;;;6.68;3.97;;;;;;;;;;5109629;28;20030;-60
2023/12/15 00:47:22;;;;;;;8.48;5.25;;;;;;;;;;5110021;28;20544;-62
2023/12/15 00:49:48;;;;;;;6.45;3.83;;;;;;;;;;5092007;28;20028;-61
2023/12/15 00:52:14;;;;;;;9.68;4.55;;;;;;;;;;5110103;28;20538;-63
2023/12/15 00:54:40;;;;;;;6.38;3.80;;;;;;;;;;5111319;28;20182;-61
2023/12/15 00:57:06;;;;;;;6.50;3.90;;;;;;;;;;5111908;28;20027;-60
2023/12/15 00:59:32;;;;;;;6.30;3.70;;;;;;;;;;5111852;28;20087;-60
2023/12/15 01:01:58;;;;;;;7.97;4.75;;;;;;;;;;5111616;28;20026;-62
2023/12/15 01:04:24;;;;;;;6.70;4.00;;;;;;;;;;5111579;28;20027;-62
2023/12/15 01:06:50;;;;;;;6.78;4.00;;;;;;;;;;5111740;28;20026;-61
2023/12/15 01:09:16;;;;;;;8.35;5.00;;;;;;;;;;5111178;28;20023;-61
2023/12/15 01:11:42;;;;;;;6.18;3.60;;;;;;;;;;5111243;28;20035;-62
2023/12/15 01:14:08;;;;;;;6.40;3.80;;;;;;;;;;5092895;28;20062;-62
2023/12/15 01:16:34;;;;;;;6.90;4.28;;;;;;;;;;5103741;28;20024;-62
2023/12/15 01:19:00;;;;;;;10.02;5.97;;;;;;;;;;5092557;28;20016;-64
2023/12/15 01:21:26;;;;;;;6.45;3.83;;;;;;;;;;5092754;28;20012;-63
2023/12/15 01:23:52;;;;;;;6.20;3.67;;;;;;;;;;5092957;28;20052;-63
2023/12/15 01:26:18;;;;;;;9.05;6.22;;;;;;;;;;5092623;28;20467;-62
2023/12/15 01:28:44;;;;;;;6.55;3.70;;;;;;;;;;5091154;28;20024;-61
2023/12/15 01:31:10;;;;;;;6.50;3.95;;;;;;;;;;5090945;28;20073;-63
2023/12/15 01:33:36;;;;;;;8.15;4.85;;;;;;;;;;5091304;28;20020;-63
2023/12/15 01:36:02;;;;;;;6.50;3.83;;;;;;;;;;5091037;28;20474;-63
2023/12/15 01:38:28;;;;;;;6.88;4.18;;;;;;;;;;5091536;28;20028;-63
2023/12/15 01:40:54;;;;;;;9.00;4.95;;;;;;;;;;5090922;28;20016;-63
2023/12/15 01:43:20;;;;;;;6.30;3.70;;;;;;;;;;5094913;28;20012;-63
2023/12/15 01:45:46;;;;;;;6.60;3.80;;;;;;;;;;5095699;28;20456;-63
2023/12/15 01:48:12;;;;;;;8.13;5.13;;;;;;;;;;5090715;28;20096;-63
2023/12/15 01:50:38;;;;;;;6.35;3.83;;;;;;;;;;5090725;28;20132;-63
2023/12/15 01:53:04;;;;;;;13.07;5.65;;;;;;;;;;5099296;28;20020;-63
2023/12/15 01:55:30;;;;;;;6.15;3.65;;;;;;;;;;5090580;28;20023;-61
2023/12/15 01:57:56;;;;;;;7.07;4.28;;;;;;;;;;5091489;28;20069;-62
2023/12/15 02:00:22;;;;;;;8.38;5.05;;;;;;;;;;5090437;28;20012;-63
2023/12/15 02:02:48;;;;;;;5.95;3.50;;;;;;;;;;5090805;28;20059;-63
2023/12/15 02:05:14;;;;;;;7.03;4.53;;;;;;;;;;5108113;28;20028;-62
2023/12/15 02:07:40;;;;;;;8.27;5.25;;;;;;;;;;5089165;28;20012;-63
2023/12/15 02:10:06;;;;;;;8.10;4.88;;;;;;;;;;5090409;28;20035;-62
2023/12/15 02:12:32;;;;;;;7.03;4.88;;;;;;;;;;5090425;28;20024;-63
2023/12/15 02:14:58;;;;;;;7.43;5.25;;;;;;;;;;5089218;28;20111;-63
2023/12/15 02:17:24;;;;;;;6.00;3.50;;;;;;;;;;5103462;28;20015;-63
2023/12/15 02:19:50;;;;;;;8.18;4.85;;;;;;;;;;5095473;28;20031;-63
2023/12/15 02:22:16;;;;;;;8.82;5.60;;;;;;;;;;5091816;28;20140;-64
2023/12/15 02:24:42;;;;;;;5.63;3.33;;;;;;;;;;5091187;28;20519;-64
2023/12/15 02:27:08;;;;;;;8.40;5.03;;;;;;;;;;5102418;28;20019;-62
2023/12/15 02:29:34;;;;;;;8.43;5.18;;;;;;;;;;5097912;28;20068;-62
2023/12/15 02:32:00;;;;;;;6.97;3.90;;;;;;;;;;5089806;28;20454;-63
2023/12/15 02:34:27;;;;;;;9.73;4.57;;;;;;;;;;5091186;28;20027;-63
2023/12/15 02:36:53;;;;;;;6.47;4.03;;;;;;;;;;5091300;28;20020;-64
2023/12/15 02:39:19;;;;;;;7.05;4.05;;;;;;;;;;5093704;28;20012;-64
2023/12/15 02:41:45;;;;;;;8.50;3.78;;;;;;;;;;5096194;28;20110;-63
2023/12/15 02:44:11;;;;;;;9.50;4.97;;;;;;;;;;5093261;28;20436;-62
2023/12/15 02:46:37;;;;;;;7.00;3.88;;;;;;;;;;5097243;28;20024;-63
2023/12/15 02:49:03;;;;;;;18.05;6.32;;;;;;;;;;5091094;28;20420;-63
2023/12/15 02:51:30;;;;;;;7.75;4.95;;;;;;;;;;5089700;28;20083;-62
2023/12/15 02:53:59;;;;;;;10.23;5.50;;;;;;;;;;5090772;28;20437;-62
2023/12/15 02:56:25;;;;;;;6.70;3.72;;;;;;;;;;5090957;28;20017;-63
2023/12/15 02:58:52;;;;;;;9.98;5.03;;;;;;;;;;5091115;28;20031;-63
2023/12/15 03:01:18;;;;;;;15.30;5.78;;;;;;;;;;5091022;28;20019;-64
2023/12/15 03:03:44;;;;;;;7.75;3.90;;;;;;;;;;5098516;28;20023;-63
2023/12/15 03:06:10;;;;;;;10.00;4.68;;;;;;;;;;5091908;28;20015;-63
2023/12/15 03:08:36;;;;;;;6.60;3.88;;;;;;;;;;5090429;28;20012;-63
2023/12/15 03:11:02;;;;;;;9.13;5.95;;;;;;;;;;5090402;28;20091;-63
2023/12/15 03:13:29;;;;;;;6.72;3.90;;;;;;;;;;5089847;28;20017;-63
2023/12/15 03:16:02;;;;;;;9.82;5.85;;;;;;;;;;5091585;28;20028;-63
2023/12/15 03:18:28;;;;;;;11.07;6.53;;;;;;;;;;5090958;28;20016;-63
2023/12/15 03:20:54;;;;;;;8.05;5.30;;;;;;;;;;5094911;28;20091;-63
2023/12/15 03:23:20;;;;;;;10.77;6.72;;;;;;;;;;5095252;28;20016;-63
2023/12/15 03:25:46;;;;;;;11.55;7.30;;;;;;;;;;5094982;28;20486;-65
2023/12/15 03:28:12;;;;;;;7.35;4.55;;;;;;;;;;5094896;28;20027;-63
2023/12/15 03:30:38;;;;;;;11.57;5.65;;;;;;;;;;5095275;28;20020;-63
2023/12/15 03:33:04;;;;;;;9.13;5.55;;;;;;;;;;5093888;28;20132;-63
2023/12/15 03:35:30;;;;;;;13.93;7.03;;;;;;;;;;5095548;28;20024;-63
2023/12/15 03:37:56;;;;;;;24.13;13.40;;;;;;;;;;5094202;28;20461;-63
2023/12/15 03:40:22;;;;;;;11.60;7.20;;;;;;;;;;5095317;28;20016;-63
2023/12/15 03:42:48;;;;;;;9.38;5.80;;;;;;;;;;5095249;28;20713;-62
2023/12/15 03:45:14;;;;;;;6.68;4.00;;;;;;;;;;5095746;28;20040;-63
2023/12/15 03:47:40;;;;;;;7.57;4.45;;;;;;;;;;5095062;28;20026;-65
2023/12/15 03:50:06;;;;;;;12.23;7.20;;;;;;;;;;5095708;28;20426;-63
2023/12/15 03:52:33;;;;;;;21.65;14.25;;;;;;;;;;5095357;28;20377;-64
2023/12/15 03:54:59;;;;;;;6.90;4.10;;;;;;;;;;5095712;28;20043;-63
2023/12/15 03:57:25;;;;;;;17.23;7.80;;;;;;;;;;5094703;28;20351;-64
2023/12/15 03:59:51;;;;;;;10.18;5.65;;;;;;;;;;5094968;28;20121;-63
2023/12/15 04:02:19;;;;;;;11.27;7.63;;;;;;;;;;5092936;28;20049;-63
2023/12/15 04:04:45;;;;;;;10.43;6.82;;;;;;;;;;5094576;28;20142;-63
2023/12/15 04:07:11;;;;;;;13.15;9.05;;;;;;;;;;5093317;28;20020;-64
2023/12/15 04:09:37;;;;;;;8.55;5.25;;;;;;;;;;5095055;28;20489;-62
2023/12/15 04:12:03;;;;;;;11.70;7.55;;;;;;;;;;5092575;28;20096;-63
2023/12/15 04:14:29;;;;;;;20.70;11.00;;;;;;;;;;5094328;28;20038;-62
2023/12/15 04:16:55;;;;;;;14.27;7.93;;;;;;;;;;5092593;28;20028;-62
2023/12/15 04:19:21;;;;;;;15.93;7.25;;;;;;;;;;5094830;28;20591;-63
2023/12/15 04:21:47;;;;;;;15.95;9.75;;;;;;;;;;5094135;28;20016;-62
2023/12/15 04:24:13;;;;;;;11.10;5.93;;;;;;;;;;5102310;28;20146;-62
2023/12/15 04:26:40;;;;;;;17.58;10.25;;;;;;;;;;5093648;28;20016;-63
2023/12/15 04:29:06;;;;;;;7.97;4.93;;;;;;;;;;5092969;28;20462;-63
2023/12/15 04:31:31;;;;;;;9.30;5.68;;;;;;;;;;5094622;28;20103;-63
2023/12/15 04:33:57;;;;;;;12.32;8.60;;;;;;;;;;5093992;28;20381;-61
2023/12/15 04:36:23;;;;;;;11.95;6.70;;;;;;;;;;5093727;28;20036;-64
2023/12/15 04:38:49;;;;;;;19.85;9.00;;;;;;;;;;5093621;28;20019;-63
2023/12/15 04:41:22;;;;;;;20.60;10.68;;;;;;;;;;5093090;28;20016;-63
2023/12/15 04:43:48;;;;;;;6.90;4.10;;;;;;;;;;5094213;28;20109;-64
2023/12/15 04:46:24;;;;;;;16.55;7.03;;;;;;;;;;5096790;28;20059;-63
2023/12/15 04:48:50;;;;;;;6.40;3.80;;;;;;;;;;5107152;28;20048;-64
2023/12/15 04:51:16;;;;;;;8.05;4.50;;;;;;;;;;5093959;28;20056;-64
2023/12/15 04:53:42;;;;;;;9.02;5.32;;;;;;;;;;5093699;28;20023;-63
2023/12/15 04:56:08;;;;;;;11.35;7.25;;;;;;;;;;5111197;28;20019;-63
2023/12/15 04:58:36;;;;;;;9.48;5.63;;;;;;;;;;5093840;28;20023;-63
2023/12/15 05:01:02;;;;;;;8.55;5.00;;;;;;;;;;5094074;28;20023;-63
2023/12/15 05:03:28;;;;;;;10.05;6.15;;;;;;;;;;5093773;28;20063;-63
2023/12/15 05:05:54;;;;;;;6.80;4.00;;;;;;;;;;5093728;28;20035;-63
2023/12/15 05:08:20;;;;;;;7.50;4.50;;;;;;;;;;5093501;28;20020;-63
2023/12/15 05:10:46;;;;;;;7.63;4.38;;;;;;;;;;5092167;28;20038;-62
2023/12/15 05:13:13;;;;;;;8.88;5.78;;;;;;;;;;5093609;28;20419;-63
2023/12/15 05:15:39;;;;;;;13.52;8.77;;;;;;;;;;5093262;28;20012;-63
2023/12/15 05:18:05;;;;;;;8.30;5.95;;;;;;;;;;5091811;28;20020;-62
2023/12/15 05:20:32;;;;;;;7.20;4.30;;;;;;;;;;5093157;28;20015;-63
2023/12/15 05:22:58;;;;;;;8.38;5.63;;;;;;;;;;5101688;28;20111;-63
2023/12/15 05:25:24;;;;;;;7.82;4.50;;;;;;;;;;5091477;28;20020;-62
2023/12/15 05:27:50;;;;;;;19.27;9.85;;;;;;;;;;5100098;28;20028;-60
2023/12/15 05:30:16;;;;;;;17.77;10.38;;;;;;;;;;5091871;28;20012;-63
2023/12/15 05:32:42;;;;;;;12.45;8.60;;;;;;;;;;5091748;28;20381;-62
2023/12/15 05:35:08;;;;;;;8.88;5.75;;;;;;;;;;5089916;28;20575;-62
2023/12/15 05:37:34;;;;;;;24.88;8.68;;;;;;;;;;5091372;28;20473;-63
2023/12/15 05:40:00;;;;;;;19.98;13.25;;;;;;;;;;5100491;28;20065;-62
2023/12/15 05:42:26;;;;;;;15.68;8.82;;;;;;;;;;5099191;28;20035;-63
2023/12/15 05:44:52;;;;;;;10.15;6.55;;;;;;;;;;5092138;28;20081;-70
2023/12/15 05:47:18;;;;;;;9.35;5.85;;;;;;;;;;5092183;28;20071;-63
2023/12/15 05:49:44;;;;;;;13.73;7.25;;;;;;;;;;5092320;28;20357;-63
2023/12/15 05:52:10;;;;;;;9.18;5.80;;;;;;;;;;5102770;28;20062;-63
2023/12/15 05:54:39;;;;;;;11.55;7.05;;;;;;;;;;5098066;28;20099;-64
2023/12/15 05:57:06;;;;;;;21.65;10.57;;;;;;;;;;5091491;28;20024;-63
2023/12/15 05:59:32;;;;;;;14.40;8.30;;;;;;;;;;5091712;28;20469;-63
2023/12/15 06:01:58;;;;;;;13.27;6.50;;;;;;;;;;5092124;28;20023;-64
2023/12/15 06:04:24;;;;;;;20.08;8.63;;;;;;;;;;5107936;28;20020;-63
2023/12/15 06:06:50;;;;;;;10.07;6.45;;;;;;;;;;5090001;28;20527;-63
2023/12/15 06:09:16;;;;;;;12.98;7.13;;;;;;;;;;5102364;28;20039;-62
2023/12/15 06:11:43;;;;;;;27.75;12.48;;;;;;;;;;5096825;28;20019;-63
2023/12/15 06:14:09;;;;;;;16.63;8.52;;;;;;;;;;5091473;28;20095;-64
2023/12/15 06:16:35;;;;;;;13.13;7.47;;;;;;;;;;5091771;28;20038;-61
2023/12/15 06:19:02;;;;;;;13.48;8.80;;;;;;;;;;5091364;28;20016;-63
2023/12/15 06:21:28;;;;;;;21.08;12.35;;;;;;;;;;5089419;28;20020;-63
2023/12/15 06:23:54;;;;;;;13.13;8.70;;;;;;;;;;5090535;28;20478;-63
2023/12/15 06:26:24;;;;;;;20.38;13.07;;;;;;;;;;5090753;28;20064;-61
2023/12/15 06:28:51;;;;;;;30.02;17.70;;;;;;;;;;5089938;28;20057;-63
2023/12/15 06:31:17;;;;;;;12.35;7.35;;;;;;;;;;5092925;28;20020;-62
2023/12/15 06:33:43;;;;;;;26.05;16.60;;;;;;;;;;5104605;28;20071;-64
2023/12/15 06:36:09;;;;;;;9.82;5.82;;;;;;;;;;5091028;28;20016;-64
2023/12/15 06:38:36;;;;;;;13.70;9.27;;;;;;;;;;5091280;28;20020;-64
2023/12/15 06:41:03;;;;;;;21.30;11.23;;;;;;;;;;5099553;28;20020;-62
2023/12/15 06:43:29;;;;;;;13.68;10.52;;;;;;;;;;5096900;28;20055;-63
2023/12/15 06:45:55;;;;;;;17.65;8.70;;;;;;;;;;5089707;28;20071;-63
2023/12/15 06:48:21;;;;;;;19.23;11.32;;;;;;;;;;5090427;28;20012;-61
2023/12/15 06:50:47;;;;;;;13.77;7.13;;;;;;;;;;5089951;28;20346;-62
2023/12/15 06:53:13;;;;;;;33.65;16.95;;;;;;;;;;5091611;28;20020;-62
2023/12/15 06:55:39;;;;;;;24.92;16.67;;;;;;;;;;5094864;28;20012;-62
2023/12/15 06:58:05;;;;;;;13.95;8.27;;;;;;;;;;5094273;28;20401;-61
2023/12/15 07:00:32;;;;;;;22.08;13.77;;;;;;;;;;5092959;28;20110;-62
2023/12/15 07:02:58;;;;;;;16.58;8.52;;;;;;;;;;5095620;28;20538;-61
2023/12/15 07:05:24;;;;;;;30.95;17.35;;;;;;;;;;5097444;28;20019;-61
2023/12/15 07:07:49;;;;;;;17.98;11.20;;;;;;;;;;5105985;28;20012;-61
2023/12/15 07:10:16;;;;;;;18.75;12.93;;;;;;;;;;5096139;28;20111;-62
2023/12/15 07:12:42;;;;;;;36.88;22.20;;;;;;;;;;5099166;28;20027;-62
2023/12/15 07:15:09;;;;;;;13.85;8.93;;;;;;;;;;5091384;28;20020;-61
2023/12/15 07:17:35;;;;;;;38.15;21.73;;;;;;;;;;5093118;28;20020;-59
2023/12/15 07:20:01;;;;;;;20.02;10.27;;;;;;;;;;5092400;28;20016;-62
2023/12/15 07:22:27;;;;;;;14.85;9.43;;;;;;;;;;5091270;28;20044;-58
2023/12/15 07:24:53;;;;;;;21.67;10.95;;;;;;;;;;5092992;28;20023;-61
2023/12/15 07:27:19;;;;;;;29.27;16.42;;;;;;;;;;5100849;28;20019;-62
2023/12/15 07:29:45;;;;;;;26.92;20.17;;;;;;;;;;5101708;28;20016;-63
2023/12/15 07:32:11;;;;;;;21.10;8.05;;;;;;;;;;5101117;28;20020;-62
2023/12/15 07:34:37;;;;;;;15.82;9.45;;;;;;;;;;5111486;28;20023;-63
2023/12/15 07:37:03;;;;;;;31.60;16.10;;;;;;;;;;5103472;28;20020;-63
2023/12/15 07:39:29;;;;;;;26.90;10.55;;;;;;;;;;5096885;28;20365;-62
2023/12/15 07:41:55;;;;;;;13.95;9.30;;;;;;;;;;5104868;28;20027;-63
2023/12/15 07:44:21;;;;;;;14.05;9.98;;;;;;;;;;5093546;28;20020;-63
2023/12/15 07:46:47;;;;;;;17.77;12.55;;;;;;;;;;5101449;28;20030;-64
2023/12/15 07:49:13;;;;;;;16.80;10.23;;;;;;;;;;5104212;28;20511;-62
2023/12/15 07:51:40;;;;;;;23.83;13.00;;;;;;;;;;5101011;28;20054;-63
2023/12/15 07:54:06;;;;;;;19.65;13.13;;;;;;;;;;5093019;28;20079;-62
2023/12/15 07:56:33;;;;;;;21.80;12.07;;;;;;;;;;5092933;28;20067;-63
2023/12/15 07:58:59;;;;;;;27.92;17.10;;;;;;;;;;5107149;28;20023;-64
2023/12/15 08:01:25;;;;;;;21.05;13.45;;;;;;;;;;5092989;28;20438;-64
2023/12/15 08:03:51;;;;;;;19.23;11.70;;;;;;;;;;5093423;28;20056;-63
2023/12/15 08:06:17;;;;;;;19.10;10.90;;;;;;;;;;5103145;28;20061;-63
2023/12/15 08:08:44;;;;;;;13.52;8.73;;;;;;;;;;5100049;28;20354;-62
2023/12/15 08:11:11;;;;;;;16.85;10.50;;;;;;;;;;5102444;28;20020;-64
2023/12/15 08:13:37;;;;;;;13.68;11.27;;;;;;;;;;5093119;28;20012;-63
2023/12/15 08:16:03;;;;;;;21.30;14.27;;;;;;;;;;5092824;28;20035;-63
2023/12/15 08:18:30;;;;;;;15.02;9.38;;;;;;;;;;5092485;28;20039;-63
2023/12/15 08:20:56;;;;;;;23.30;14.77;;;;;;;;;;5091272;28;20097;-63
2023/12/15 08:23:22;;;;;;;27.65;9.98;;;;;;;;;;5104795;28;20391;-64
2023/12/15 08:25:48;;;;;;;18.27;11.15;;;;;;;;;;5112593;28;20011;-63
2023/12/15 08:28:14;;;;;;;21.58;11.95;;;;;;;;;;5112885;28;20046;-63
2023/12/15 08:30:41;;;;;;;21.50;10.00;;;;;;;;;;5093541;28;20018;-62
2023/12/15 08:33:07;;;;;;;14.52;10.45;;;;;;;;;;5095240;28;20065;-64
2023/12/15 08:35:33;;;;;;;10.32;7.07;;;;;;;;;;5091943;28;20462;-63
2023/12/15 08:37:59;;;;;;;24.20;12.45;;;;;;;;;;5091384;28;20059;-61
2023/12/15 08:40:25;;;;;;;28.88;9.35;;;;;;;;;;5090477;28;20008;-63
2023/12/15 08:42:51;;;;;;;9.88;6.25;;;;;;;;;;5094429;28;20016;-64
2023/12/15 08:45:18;;;;;;;8.27;5.32;;;;;;;;;;5096018;28;20015;-63
2023/12/15 08:47:44;;;;;;;8.48;4.95;;;;;;;;;;5106217;28;20457;-63
2023/12/15 08:50:10;;;;;;;11.75;7.97;;;;;;;;;;5095533;28;20020;-63
2023/12/15 08:52:36;;;;;;;10.63;7.93;;;;;;;;;;5094302;28;20031;-64
2023/12/15 08:55:02;;;;;;;20.08;8.48;;;;;;;;;;5093012;28;20046;-63
2023/12/15 08:57:28;;;;;;;10.18;6.05;;;;;;;;;;5091667;28;20584;-62
2023/12/15 08:59:54;;;;;;;7.40;4.30;;;;;;;;;;5092211;28;20041;-63
2023/12/15 09:02:20;;;;;;;8.25;5.03;;;;;;;;;;5082341;28;20047;-62
2023/12/15 09:04:47;;;;;;;15.82;11.00;;;;;;;;;;5091705;28;20023;-62
2023/12/15 09:07:14;;;;;;;14.90;7.80;;;;;;;;;;5089775;28;20020;-55
2023/12/15 09:09:40;;;;;;;20.90;10.70;;;;;;;;;;5089488;28;20020;-52
2023/12/15 09:12:07;;;;;;;10.73;8.18;;;;;;;;;;5099064;28;20080;-54
2023/12/15 09:14:33;;;;;;;13.32;9.18;;;;;;;;;;5096317;28;20020;-54
2023/12/15 09:17:00;;;;;;;34.50;17.08;;;;;;;;;;5089561;28;20023;-54
2023/12/15 09:19:27;;;;;;;10.50;7.05;;;;;;;;;;5089199;28;20364;-56
2023/12/15 09:21:53;;;;;;;27.17;11.32;;;;;;;;;;5088960;28;20016;-53
2023/12/15 09:24:19;;;;;;;9.13;5.13;;;;;;;;;;5088024;28;20046;-57
2023/12/15 09:26:46;;;;;;;16.05;13.20;;;;;;;;;;5089393;28;20016;-57
2023/12/15 09:29:12;;;;;;;26.75;14.10;;;;;;;;;;5087804;28;20514;-55
2023/12/15 09:31:39;;;;;;;11.23;8.02;;;;;;;;;;5088884;28;20404;-55
2023/12/15 09:34:05;;;;;;;20.00;7.75;;;;;;;;;;5106587;28;20521;-56
2023/12/15 09:36:31;;;;;;;7.75;5.30;;;;;;;;;;5109105;28;20103;-56
2023/12/15 09:38:57;;;;;;;13.32;5.55;;;;;;;;;;5109020;28;20019;-55
2023/12/15 09:41:23;;;;;;;10.23;5.68;;;;;;;;;;5108992;28;20015;-58
2023/12/15 09:43:50;;;;;;;19.20;9.48;;;;;;;;;;5090672;28;20016;-50
2023/12/15 09:46:16;;;;;;;15.60;7.40;;;;;;;;;;5105590;28;20042;-55
2023/12/15 09:48:44;;;;;;;22.33;11.27;;;;;;;;;;5089111;28;20031;-55
2023/12/15 09:51:15;;;;;;;15.65;10.88;;;;;;;;;;5088635;28;20028;-57
2023/12/15 09:53:45;;;;;;;7.35;4.50;;;;;;;;;;5093863;28;20020;-57
2023/12/15 09:56:11;;;;;;;21.15;10.93;;;;;;;;;;5096575;28;20024;-56
2023/12/15 09:58:37;;;;;;;17.10;8.20;;;;;;;;;;5102944;28;20038;-54
2023/12/15 10:01:04;;;;;;;9.57;5.35;;;;;;;;;;5108703;28;20098;-54
2023/12/15 10:03:30;;;;;;;7.70;4.63;;;;;;;;;;5109008;28;20476;-54
2023/12/15 10:05:56;;;;;;;7.85;4.30;;;;;;;;;;5108667;28;20043;-60
2023/12/15 10:08:23;;;;;;;18.55;10.13;;;;;;;;;;5108663;28;20043;-59
2023/12/15 10:10:49;;;;;;;13.68;6.80;;;;;;;;;;5108321;28;20091;-59
2023/12/15 10:13:15;;;;;;;9.77;4.90;;;;;;;;;;5097634;28;20438;-59
2023/12/15 10:15:41;;;;;;;6.90;4.28;;;;;;;;;;5086773;28;20032;-59
2023/12/15 10:18:07;;;;;;;18.52;6.88;;;;;;;;;;5088130;28;20020;-60
2023/12/15 10:20:34;;;;;;;18.45;7.68;;;;;;;;;;5088060;28;20396;-60
2023/12/15 10:23:07;;;;;;;15.65;9.13;;;;;;;;;;5088420;28;20351;-57
2023/12/15 10:25:33;;;;;;;20.33;11.68;;;;;;;;;;5103545;28;20016;-59
2023/12/15 10:28:00;;;;;;;9.43;5.30;;;;;;;;;;5087788;28;20082;-57
2023/12/15 10:30:26;;;;;;;10.18;6.18;;;;;;;;;;5087919;28;20024;-59
2023/12/15 10:32:55;;;;;;;16.10;9.45;;;;;;;;;;5096815;28;20032;-58
2023/12/15 10:35:25;;;;;;;11.38;7.15;;;;;;;;;;5108632;28;20465;-56
2023/12/15 10:37:52;;;;;;;11.98;5.70;;;;;;;;;;5092317;28;20028;-57
2023/12/15 10:40:18;;;;;;;21.75;9.25;;;;;;;;;;5088024;28;20035;-54
2023/12/15 10:42:44;;;;;;;14.75;6.95;;;;;;;;;;5088172;28;20123;-57
2023/12/15 10:45:11;;;;;;;7.85;5.35;;;;;;;;;;5086484;28;20027;-57
2023/12/15 10:47:37;;;;;;;14.65;6.88;;;;;;;;;;5088056;28;20496;-58
2023/12/15 10:50:03;;;;;;;21.08;10.07;;;;;;;;;;5088096;28;20490;-57
2023/12/15 10:52:33;;;;;;;11.48;6.68;;;;;;;;;;5101058;28;20354;-60
2023/12/15 10:55:03;;;;;;;10.88;6.93;;;;;;;;;;5091326;28;20050;-58
2023/12/15 10:57:30;;;;;;;10.98;5.65;;;;;;;;;;5097896;28;20012;-59
2023/12/15 10:59:57;;;;;;;10.27;3.65;;;;;;;;;;5108095;28;20020;-60
2023/12/15 11:02:27;;;;;;;8.60;5.00;;;;;;;;;;5108178;28;20384;-60
2023/12/15 11:04:55;;;;;;;6.32;3.75;;;;;;;;;;5100780;28;20477;-54
2023/12/15 11:07:21;;;;;;;8.75;7.30;;;;;;;;;;5088029;28;20028;-59
2023/12/15 11:09:47;;;;;;;6.97;3.80;;;;;;;;;;5087961;28;20020;-57
2023/12/15 11:12:23;;;;;;;23.67;9.02;;;;;;;;;;5087392;28;20051;-56
2023/12/15 11:14:53;;;;;;;15.48;9.48;;;;;;;;;;5087836;28;20039;-59
2023/12/15 11:17:19;;;;;;;13.50;9.05;;;;;;;;;;5096400;28;20027;-60
2023/12/15 11:19:45;;;;;;;11.60;6.70;;;;;;;;;;5085159;28;20148;-60
2023/12/15 11:22:12;;;;;;;10.68;5.75;;;;;;;;;;5105869;28;20028;-59
2023/12/15 11:24:38;;;;;;;8.20;4.40;;;;;;;;;;5108025;28;20019;-60
2023/12/15 11:27:05;;;;;;;5.65;3.40;;;;;;;;;;5107757;28;20026;-55
2023/12/15 11:29:35;;;;;;;12.27;8.07;;;;;;;;;;5108172;28;20495;-58
2023/12/15 11:32:33;;;;;;;10.27;7.10;;;;;;;;;;5106631;28;20149;-59
2023/12/15 11:34:59;;;;;;;;;;;;;;;;;;5064167;28;20504;-59
2023/12/15 11:37:26;;;;;;;22.00;11.88;;;;;;;;;;5087677;28;19908;-58
2023/12/15 11:39:53;;;;;;;14.80;7.18;;;;;;;;;;5086938;28;20020;-57
2023/12/15 11:42:20;;;;;;;8.38;5.43;;;;;;;;;;5108063;28;20039;-55
2023/12/15 11:44:46;;;;;;;12.48;5.30;;;;;;;;;;5098574;28;20008;-57
2023/12/15 11:47:12;;;;;;;14.55;6.88;;;;;;;;;;5101048;28;20024;-59
2023/12/15 11:49:44;;;;;;;11.05;6.53;;;;;;;;;;5090966;28;20016;-56
2023/12/15 11:52:11;;;;;;;9.38;6.20;;;;;;;;;;5090793;28;20107;-54
2023/12/15 11:54:37;;;;;;;12.30;5.20;;;;;;;;;;5091201;28;20380;-55
2023/12/15 11:57:07;;;;;;;11.25;7.82;;;;;;;;;;5090950;28;20020;-54
2023/12/15 11:59:36;;;;;;;10.90;8.85;;;;;;;;;;5099215;28;20015;-59
2023/12/15 12:02:03;;;;;;;9.82;4.82;;;;;;;;;;5090612;28;20067;-59
2023/12/15 12:04:30;;;;;;;22.95;12.35;;;;;;;;;;5090533;28;20035;-59
2023/12/15 12:06:56;;;;;;;11.02;5.32;;;;;;;;;;5090293;28;20022;-55
2023/12/15 12:09:22;;;;;;;11.85;5.95;;;;;;;;;;5099203;28;20040;-58
2023/12/15 12:11:49;;;;;;;7.30;4.20;;;;;;;;;;5105962;28;20602;-57
2023/12/15 12:14:15;;;;;;;9.80;5.22;;;;;;;;;;5094006;28;20220;-58
2023/12/15 12:16:41;;;;;;;9.13;6.00;;;;;;;;;;5095749;28;20031;-60
2023/12/15 12:19:07;;;;;;;9.80;5.88;;;;;;;;;;5088812;28;20024;-57
2023/12/15 12:21:33;;;;;;;10.27;5.32;;;;;;;;;;5089792;28;20103;-59
2023/12/15 12:23:59;;;;;;;8.93;5.35;;;;;;;;;;5089675;28;20095;-59
2023/12/15 12:26:26;;;;;;;11.40;6.78;;;;;;;;;;5090072;28;20012;-58
2023/12/15 12:28:53;;;;;;;7.97;4.68;;;;;;;;;;5089866;28;20380;-58
2023/12/15 12:31:19;;;;;;;6.60;3.90;;;;;;;;;;5092877;28;20050;-60
2023/12/15 12:33:45;;;;;;;7.00;4.20;;;;;;;;;;5108856;28;20049;-60
2023/12/15 12:36:14;;;;;;;10.77;6.70;;;;;;;;;;5110130;28;20051;-61
2023/12/15 12:38:40;;;;;;;18.30;8.05;;;;;;;;;;5111069;28;20058;-58
2023/12/15 12:41:07;;;;;;;8.68;6.03;;;;;;;;;;5110194;28;20043;-54
2023/12/15 12:43:33;;;;;;;8.68;4.80;;;;;;;;;;5110814;28;20014;-60
2023/12/15 12:45:59;;;;;;;8.52;5.75;;;;;;;;;;5110649;28;20023;-58
2023/12/15 12:48:26;;;;;;;16.08;8.68;;;;;;;;;;5110267;28;20373;-54
2023/12/15 12:50:52;;;;;;;20.17;10.98;;;;;;;;;;5109670;28;20015;-57
2023/12/15 12:53:18;;;;;;;9.98;5.65;;;;;;;;;;5091757;28;20111;-58
2023/12/15 12:55:44;;;;;;;14.93;7.63;;;;;;;;;;5110224;28;20027;-57
2023/12/15 12:58:10;;;;;;;12.32;7.65;;;;;;;;;;5111025;28;20027;-56
2023/12/15 13:00:36;;;;;;;9.13;6.43;;;;;;;;;;5110518;28;20015;-57
2023/12/15 13:03:03;;;;;;;11.52;5.78;;;;;;;;;;5110346;28;20043;-55
2023/12/15 13:05:29;;;;;;;8.30;5.05;;;;;;;;;;5097849;28;20611;-55
2023/12/15 13:07:56;;;;;;;9.57;5.13;;;;;;;;;;5071346;28;20123;-58
2023/12/15 13:10:22;;;;;;;9.15;5.45;;;;;;;;;;5088392;28;20295;-58
2023/12/15 13:12:54;;;;;;;19.77;10.15;;;;;;;;;;5070135;28;20472;-59
2023/12/15 13:15:21;;;;;;;13.70;9.50;;;;;;;;;;5069459;28;20028;-55
2023/12/15 13:17:47;;;;;;;17.98;10.75;;;;;;;;;;5069632;28;20031;-57
2023/12/15 13:20:13;;;;;;;8.45;5.18;;;;;;;;;;5069472;28;20024;-58
2023/12/15 13:22:39;;;;;;;8.15;4.88;;;;;;;;;;5088297;28;20403;-56
2023/12/15 13:25:07;;;;;;;14.13;7.13;;;;;;;;;;5088713;28;20020;-52
2023/12/15 13:27:33;;;;;;;17.95;9.05;;;;;;;;;;5089780;28;20483;-57
2023/12/15 13:29:59;;;;;;;26.05;11.77;;;;;;;;;;5071371;28;20078;-57
2023/12/15 13:32:25;;;;;;;16.15;8.68;;;;;;;;;;5072685;28;20028;-58
2023/12/15 13:34:51;;;;;;;21.27;8.25;;;;;;;;;;5087883;28;20066;-57
2023/12/15 13:37:17;;;;;;;8.98;5.40;;;;;;;;;;5089624;28;20040;-57
2023/12/15 13:39:43;;;;;;;16.05;8.02;;;;;;;;;;5088272;28;20028;-58
2023/12/15 13:42:10;;;;;;;8.77;5.35;;;;;;;;;;5089396;28;20023;-54
2023/12/15 13:44:36;;;;;;;8.80;5.18;;;;;;;;;;5089711;28;20062;-57
2023/12/15 13:47:03;;;;;;;9.43;5.57;;;;;;;;;;5089170;28;20156;-55
2023/12/15 13:49:29;;;;;;;11.38;6.43;;;;;;;;;;5089099;28;20303;-58
2023/12/15 13:51:55;;;;;;;14.98;7.50;;;;;;;;;;5087533;28;20119;-58
2023/12/15 13:54:21;;;;;;;15.82;6.38;;;;;;;;;;5088997;28;20051;-59
2023/12/15 13:56:47;;;;;;;8.18;4.68;;;;;;;;;;5086866;28;20402;-60
2023/12/15 13:59:13;;;;;;;18.45;9.02;;;;;;;;;;5088479;28;20024;-56
2023/12/15 14:01:39;;;;;;;14.30;7.75;;;;;;;;;;5087545;28;20039;-57
2023/12/15 14:04:08;;;;;;;16.15;8.05;;;;;;;;;;5087034;28;20089;-58
2023/12/15 14:06:34;;;;;;;8.65;4.95;;;;;;;;;;5087322;28;20085;-56
2023/12/15 14:09:00;;;;;;;26.42;8.80;;;;;;;;;;5088338;28;20028;-60
2023/12/15 14:11:26;;;;;;;7.00;4.10;;;;;;;;;;5087169;28;20056;-56
2023/12/15 14:13:52;;;;;;;11.60;7.15;;;;;;;;;;5087231;28;20386;-59
2023/12/15 14:16:18;;;;;;;11.02;6.45;;;;;;;;;;5088275;28;20043;-59
2023/12/15 14:18:44;;;;;;;8.95;6.22;;;;;;;;;;5088500;28;20032;-57
2023/12/15 14:21:10;;;;;;;7.25;4.30;;;;;;;;;;5087105;28;20511;-58
2023/12/15 14:23:36;;;;;;;20.42;6.80;;;;;;;;;;5088626;28;20378;-55
2023/12/15 14:26:03;;;;;;;17.80;6.97;;;;;;;;;;5086807;28;20024;-57
2023/12/15 14:28:29;;;;;;;13.15;5.65;;;;;;;;;;5087125;28;20028;-55